createdAt,value
2018-09-30T00:00:03.902Z,8.74
2018-09-30T00:02:33.970Z,8.56
2018-09-30T00:05:04.576Z,8.68
2018-09-30T00:07:34.624Z,8.59
2018-09-30T00:10:05.027Z,8.63
2018-09-30T00:12:34.581Z,8.64
2018-09-30T00:15:05.129Z,8.55
2018-09-30T00:17:35.740Z,8.38
2018-09-30T00:20:06.063Z,8.41
2018-09-30T00:22:36.050Z,8.48
2018-09-30T00:25:10.992Z,8.46
2018-09-30T00:27:41.042Z,8.32
2018-09-30T00:30:11.580Z,8.39
2018-09-30T00:32:42.016Z,8.30
2018-09-30T00:35:11.954Z,8.31
2018-09-30T00:37:42.168Z,8.30
2018-09-30T00:40:12.305Z,8.27
2018-09-30T00:42:42.567Z,8.26
2018-09-30T00:45:12.455Z,8.13
2018-09-30T00:47:42.847Z,8.11
2018-09-30T00:50:13.719Z,8.15
2018-09-30T00:52:44.200Z,8.19
2018-09-30T00:55:14.162Z,8.18
2018-09-30T00:57:44.363Z,8.16
2018-09-30T01:00:15.593Z,8.16
2018-09-30T01:02:45.737Z,8.19
2018-09-30T01:05:16.560Z,8.12
2018-09-30T01:07:47.893Z,8.11
2018-09-30T01:10:17.777Z,8.10
2018-09-30T01:12:48.045Z,8.05
2018-09-30T01:15:18.953Z,7.96
2018-09-30T01:17:48.974Z,7.99
2018-09-30T01:20:18.850Z,7.85
2018-09-30T01:22:48.995Z,7.95
2018-09-30T01:25:18.956Z,7.95
2018-09-30T01:27:49.114Z,7.91
2018-09-30T01:30:19.101Z,7.88
2018-09-30T01:32:49.237Z,7.89
2018-09-30T01:35:19.279Z,7.95
2018-09-30T01:37:49.322Z,7.91
2018-09-30T01:40:19.712Z,7.92
2018-09-30T01:42:49.621Z,7.84
2018-09-30T01:45:19.739Z,7.81
2018-09-30T01:47:49.729Z,7.87
2018-09-30T01:50:19.742Z,7.83
2018-09-30T01:52:56.973Z,7.79
2018-09-30T01:55:27.864Z,7.84
2018-09-30T01:57:57.627Z,7.86
2018-09-30T02:00:27.605Z,7.82
2018-09-30T02:02:57.678Z,7.83
2018-09-30T02:05:27.605Z,7.79
2018-09-30T02:07:57.456Z,7.70
2018-09-30T02:10:27.392Z,7.67
2018-09-30T02:12:57.426Z,7.76
2018-09-30T02:15:27.416Z,7.72
2018-09-30T02:17:57.547Z,7.70
2018-09-30T02:20:27.820Z,7.73
2018-09-30T02:22:57.646Z,7.67
2018-09-30T02:25:27.552Z,7.71
2018-09-30T02:27:57.404Z,7.66
2018-09-30T02:30:27.447Z,7.66
2018-09-30T02:32:57.436Z,7.63
2018-09-30T02:35:27.463Z,7.65
2018-09-30T02:37:57.687Z,7.58
2018-09-30T02:40:27.621Z,7.62
2018-09-30T02:42:57.897Z,7.56
2018-09-30T02:45:28.014Z,7.48
2018-09-30T02:47:57.997Z,7.45
2018-09-30T02:50:27.955Z,7.48
2018-09-30T02:52:58.122Z,7.42
2018-09-30T02:55:28.232Z,7.41
2018-09-30T02:57:58.451Z,7.43
2018-09-30T03:00:29.641Z,7.41
2018-09-30T03:02:59.712Z,7.41
2018-09-30T03:05:30.836Z,7.40
2018-09-30T03:08:05.792Z,7.32
2018-09-30T03:10:36.930Z,7.28
2018-09-30T03:13:08.112Z,7.21
2018-09-30T03:15:39.519Z,7.21
2018-09-30T03:18:09.678Z,7.26
2018-09-30T03:20:39.685Z,7.26
2018-09-30T03:23:09.668Z,7.24
2018-09-30T03:25:39.756Z,7.23
2018-09-30T03:28:10.459Z,7.15
2018-09-30T03:30:41.620Z,7.22
2018-09-30T03:33:11.309Z,7.17
2018-09-30T03:35:41.474Z,7.10
2018-09-30T03:38:11.353Z,7.15
2018-09-30T03:40:41.445Z,7.09
2018-09-30T03:43:11.292Z,7.17
2018-09-30T03:45:41.267Z,7.11
2018-09-30T03:48:11.279Z,7.13
2018-09-30T03:50:41.469Z,7.11
2018-09-30T03:53:12.386Z,7.15
2018-09-30T03:55:42.480Z,7.15
2018-09-30T03:58:12.632Z,7.11
2018-09-30T04:00:42.618Z,7.09
2018-09-30T04:03:12.641Z,7.10
2018-09-30T04:05:43.127Z,7.09
2018-09-30T04:08:13.116Z,7.11
2018-09-30T04:10:43.171Z,7.12
2018-09-30T04:13:13.341Z,7.08
2018-09-30T04:15:43.462Z,7.07
2018-09-30T04:18:13.913Z,7.10
2018-09-30T04:20:45.348Z,7.08
2018-09-30T04:23:15.275Z,7.04
2018-09-30T04:25:46.308Z,7.07
2018-09-30T04:28:19.128Z,7.05
2018-09-30T04:30:49.715Z,7.01
2018-09-30T04:33:19.892Z,7.03
2018-09-30T04:35:50.294Z,7.05
2018-09-30T04:38:20.111Z,7.04
2018-09-30T04:40:50.615Z,7.06
2018-09-30T04:43:20.779Z,7.04
2018-09-30T04:45:50.698Z,6.96
2018-09-30T04:48:20.632Z,6.97
2018-09-30T04:50:50.082Z,6.92
2018-09-30T04:53:20.563Z,6.96
2018-09-30T04:55:50.567Z,6.97
2018-09-30T04:58:20.936Z,6.89
2018-09-30T05:00:52.456Z,6.92
2018-09-30T05:03:22.622Z,6.93
2018-09-30T05:05:52.819Z,6.86
2018-09-30T05:08:23.830Z,6.76
2018-09-30T05:10:54.000Z,6.77
2018-09-30T05:13:24.269Z,6.79
2018-09-30T05:15:53.742Z,6.81
2018-09-30T05:18:24.359Z,6.82
2018-09-30T05:20:54.227Z,6.77
2018-09-30T05:23:24.040Z,6.73
2018-09-30T05:25:53.646Z,6.66
2018-09-30T05:28:23.370Z,6.73
2018-09-30T05:30:53.241Z,6.79
2018-09-30T05:33:23.150Z,6.64
2018-09-30T05:35:52.821Z,6.68
2018-09-30T05:38:23.114Z,6.64
2018-09-30T05:40:52.766Z,6.74
2018-09-30T05:43:22.983Z,6.78
2018-09-30T05:45:53.940Z,6.76
2018-09-30T05:48:24.286Z,6.71
2018-09-30T05:50:55.146Z,6.81
2018-09-30T05:53:25.107Z,6.74
2018-09-30T05:55:54.851Z,6.73
2018-09-30T05:58:24.832Z,6.83
2018-09-30T06:00:54.782Z,6.88
2018-09-30T06:03:24.835Z,6.84
2018-09-30T06:05:55.000Z,6.98
2018-09-30T06:08:25.498Z,7.00
2018-09-30T06:10:55.980Z,7.09
2018-09-30T06:13:25.926Z,7.19
2018-09-30T06:15:56.812Z,7.28
2018-09-30T06:18:26.669Z,7.33
2018-09-30T06:20:56.691Z,7.40
2018-09-30T06:23:26.571Z,7.61
2018-09-30T06:25:56.646Z,7.69
2018-09-30T06:28:26.094Z,7.76
2018-09-30T06:30:56.058Z,7.78
2018-09-30T06:33:26.238Z,7.92
2018-09-30T06:35:56.143Z,7.99
2018-09-30T06:38:26.277Z,8.04
2018-09-30T06:40:56.517Z,8.06
2018-09-30T06:43:27.147Z,8.12
2018-09-30T06:45:58.174Z,8.20
2018-09-30T06:48:28.954Z,8.26
2018-09-30T06:50:58.959Z,8.30
2018-09-30T06:53:29.021Z,8.35
2018-09-30T06:55:59.673Z,8.37
2018-09-30T06:58:29.506Z,8.43
2018-09-30T07:00:59.468Z,8.50
2018-09-30T07:03:30.093Z,8.49
2018-09-30T07:06:00.703Z,8.55
2018-09-30T07:08:31.412Z,8.54
2018-09-30T07:11:02.107Z,8.74
2018-09-30T07:13:32.082Z,8.89
2018-09-30T07:16:03.133Z,9.04
2018-09-30T07:18:32.405Z,9.22
2018-09-30T07:21:02.430Z,9.40
2018-09-30T07:23:33.280Z,9.69
2018-09-30T07:26:03.448Z,10.17
2018-09-30T07:28:33.462Z,10.43
2018-09-30T07:31:03.062Z,10.85
2018-09-30T07:33:33.019Z,11.29
2018-09-30T07:36:02.951Z,11.47
2018-09-30T07:38:32.748Z,12.06
2018-09-30T07:41:03.394Z,12.33
2018-09-30T07:43:34.348Z,12.66
2018-09-30T07:46:04.409Z,12.92
2018-09-30T07:48:34.261Z,13.23
2018-09-30T07:51:04.317Z,13.54
2018-09-30T07:53:34.182Z,13.94
2018-09-30T07:56:04.053Z,14.46
2018-09-30T07:58:33.878Z,14.72
2018-09-30T08:01:03.878Z,14.70
2018-09-30T08:03:33.810Z,15.14
2018-09-30T08:06:03.689Z,15.10
2018-09-30T08:08:33.517Z,15.31
2018-09-30T08:11:03.475Z,15.88
2018-09-30T08:13:33.396Z,15.88
2018-09-30T08:16:03.363Z,16.63
2018-09-30T08:18:33.207Z,16.45
2018-09-30T08:21:03.249Z,16.60
2018-09-30T08:23:39.311Z,17.05
2018-09-30T08:26:08.954Z,17.07
2018-09-30T08:28:39.005Z,17.37
2018-09-30T08:31:09.556Z,17.11
2018-09-30T08:33:39.897Z,17.54
2018-09-30T08:36:10.688Z,17.58
2018-09-30T08:38:41.952Z,17.62
2018-09-30T08:41:13.832Z,18.36
2018-09-30T08:43:44.280Z,18.39
2018-09-30T08:46:15.053Z,18.57
2018-09-30T08:48:45.838Z,18.92
2018-09-30T08:51:16.384Z,18.52
2018-09-30T08:53:46.891Z,19.17
2018-09-30T08:56:17.019Z,19.06
2018-09-30T08:58:47.012Z,19.22
2018-09-30T09:01:17.197Z,19.30
2018-09-30T09:03:47.706Z,19.90
2018-09-30T09:06:17.815Z,19.58
2018-09-30T09:08:47.588Z,20.39
2018-09-30T09:11:17.370Z,19.71
2018-09-30T09:13:48.171Z,20.45
2018-09-30T09:16:18.107Z,20.17
2018-09-30T09:18:48.983Z,20.46
2018-09-30T09:21:19.272Z,20.72
2018-09-30T09:23:49.081Z,21.21
2018-09-30T09:26:19.232Z,21.02
2018-09-30T09:28:51.273Z,21.36
2018-09-30T09:31:20.837Z,21.31
2018-09-30T09:33:50.553Z,21.12
2018-09-30T09:36:20.209Z,21.64
2018-09-30T09:38:50.182Z,21.59
2018-09-30T09:41:20.029Z,21.67
2018-09-30T09:43:50.038Z,22.45
2018-09-30T09:46:19.847Z,22.87
2018-09-30T09:48:49.627Z,22.52
2018-09-30T09:51:20.475Z,22.63
2018-09-30T09:53:51.215Z,24.48
2018-09-30T09:56:21.291Z,23.07
2018-09-30T09:58:51.480Z,23.09
2018-09-30T10:01:21.663Z,25.04
2018-09-30T10:03:51.603Z,25.26
2018-09-30T10:06:21.822Z,24.06
2018-09-30T10:08:52.200Z,25.31
2018-09-30T10:11:22.518Z,25.49
2018-09-30T10:13:52.634Z,25.98
2018-09-30T10:16:22.791Z,25.96
2018-09-30T10:18:53.374Z,27.58
2018-09-30T10:21:23.595Z,27.51
2018-09-30T10:23:53.657Z,27.23
2018-09-30T10:26:23.719Z,27.25
2018-09-30T10:28:53.666Z,26.03
2018-09-30T10:31:23.746Z,27.23
2018-09-30T10:33:53.705Z,26.88
2018-09-30T10:36:23.723Z,26.36
2018-09-30T10:38:54.311Z,24.52
2018-09-30T10:41:24.340Z,23.60
2018-09-30T10:43:54.986Z,23.46
2018-09-30T10:46:25.861Z,23.13
2018-09-30T10:48:55.912Z,22.43
2018-09-30T10:51:26.085Z,22.74
2018-09-30T10:53:56.043Z,22.69
2018-09-30T10:56:26.644Z,21.38
2018-09-30T10:58:57.142Z,21.32
2018-09-30T11:01:27.159Z,21.24
2018-09-30T11:03:57.553Z,20.80
2018-09-30T11:06:27.362Z,20.82
2018-09-30T11:08:57.677Z,20.75
2018-09-30T11:11:28.916Z,20.38
2018-09-30T11:13:59.441Z,20.31
2018-09-30T11:16:29.431Z,20.29
2018-09-30T11:19:00.721Z,20.18
2018-09-30T11:21:31.013Z,19.99
2018-09-30T11:24:01.440Z,19.82
2018-09-30T11:26:31.633Z,19.66
2018-09-30T11:29:02.086Z,19.59
2018-09-30T11:31:32.744Z,19.34
2018-09-30T11:34:02.592Z,19.11
2018-09-30T11:36:33.217Z,19.07
2018-09-30T11:39:03.271Z,19.09
2018-09-30T11:41:33.694Z,19.01
2018-09-30T11:44:05.980Z,19.04
2018-09-30T11:46:37.090Z,18.93
2018-09-30T11:49:08.248Z,18.86
2018-09-30T11:51:38.482Z,18.72
2018-09-30T11:54:08.669Z,18.56
2018-09-30T11:56:39.596Z,18.54
2018-09-30T11:59:09.578Z,18.58
2018-09-30T12:01:40.177Z,18.59
2018-09-30T12:04:10.318Z,18.54
2018-09-30T12:06:40.993Z,18.48
2018-09-30T12:09:13.104Z,18.52
2018-09-30T12:11:43.636Z,18.40
2018-09-30T12:14:13.670Z,18.36
2018-09-30T12:16:44.296Z,18.31
2018-09-30T12:19:14.964Z,18.39
2018-09-30T12:21:45.594Z,18.41
2018-09-30T12:24:15.772Z,18.34
2018-09-30T12:26:47.646Z,18.27
2018-09-30T12:29:17.786Z,18.28
2018-09-30T12:31:47.909Z,18.31
2018-09-30T12:34:18.030Z,18.31
2018-09-30T12:36:47.995Z,18.17
2018-09-30T12:39:18.662Z,18.20
2018-09-30T12:41:48.754Z,18.19
2018-09-30T12:44:18.888Z,18.17
2018-09-30T12:46:48.969Z,18.13
2018-09-30T12:49:19.097Z,18.19
2018-09-30T12:51:49.360Z,18.13
2018-09-30T12:54:19.295Z,18.07
2018-09-30T12:56:49.283Z,18.12
2018-09-30T12:59:20.616Z,18.13
2018-09-30T13:01:50.548Z,18.09
2018-09-30T13:04:20.812Z,18.10
2018-09-30T13:06:50.812Z,18.12
2018-09-30T13:09:20.957Z,18.07
2018-09-30T13:11:51.318Z,18.07
2018-09-30T13:14:21.373Z,18.03
2018-09-30T13:16:52.386Z,18.06
2018-09-30T13:19:22.422Z,18.05
2018-09-30T13:21:52.454Z,18.05
2018-09-30T13:24:23.043Z,17.98
2018-09-30T13:26:53.247Z,17.84
2018-09-30T13:29:23.520Z,17.89
2018-09-30T13:31:54.096Z,17.92
2018-09-30T13:34:24.182Z,17.93
2018-09-30T13:36:54.216Z,17.91
2018-09-30T13:39:24.716Z,17.87
2018-09-30T13:41:55.561Z,17.83
2018-09-30T13:44:25.697Z,17.87
2018-09-30T13:46:56.310Z,17.77
2018-09-30T13:49:26.551Z,17.79
2018-09-30T13:51:56.571Z,17.79
2018-09-30T13:54:26.663Z,17.79
2018-09-30T13:56:57.048Z,17.78
2018-09-30T13:59:27.183Z,17.74
2018-09-30T14:01:57.287Z,17.75
2018-09-30T14:04:27.482Z,17.71
2018-09-30T14:06:57.961Z,17.71
2018-09-30T14:09:28.175Z,17.73
2018-09-30T14:11:58.451Z,17.74
2018-09-30T14:14:29.110Z,17.73
2018-09-30T14:16:59.386Z,17.73
2018-09-30T14:19:29.122Z,17.70
2018-09-30T14:21:59.523Z,17.66
2018-09-30T14:24:29.629Z,17.63
2018-09-30T14:26:59.821Z,17.60
2018-09-30T14:29:30.501Z,17.62
2018-09-30T14:32:00.648Z,17.57
2018-09-30T14:34:31.544Z,17.55
2018-09-30T14:37:01.611Z,17.50
2018-09-30T14:39:31.575Z,17.49
2018-09-30T14:42:01.622Z,17.44
2018-09-30T14:44:31.805Z,17.41
2018-09-30T14:47:02.408Z,17.38
2018-09-30T14:49:32.417Z,17.37
2018-09-30T14:52:02.254Z,17.32
2018-09-30T14:54:32.451Z,17.29
2018-09-30T14:57:02.446Z,17.28
2018-09-30T14:59:33.215Z,17.27
2018-09-30T15:02:03.163Z,17.23
2018-09-30T15:04:33.130Z,17.21
2018-09-30T15:07:03.144Z,17.19
2018-09-30T15:09:33.260Z,17.17
2018-09-30T15:12:03.495Z,17.15
2018-09-30T15:14:34.543Z,17.12
2018-09-30T15:17:05.623Z,17.09
2018-09-30T15:19:35.639Z,17.06
2018-09-30T15:22:06.326Z,17.03
2018-09-30T15:24:36.496Z,17.02
2018-09-30T15:27:06.875Z,16.98
2018-09-30T15:29:36.931Z,16.96
2018-09-30T15:32:07.269Z,16.92
2018-09-30T15:34:36.522Z,16.94
2018-09-30T15:37:06.681Z,16.91
2018-09-30T15:39:37.397Z,16.86
2018-09-30T15:42:08.455Z,16.85
2018-09-30T15:44:38.949Z,16.83
2018-09-30T15:47:09.000Z,16.80
2018-09-30T15:49:38.711Z,16.78
2018-09-30T15:52:08.808Z,16.75
2018-09-30T15:54:38.635Z,16.71
2018-09-30T15:57:08.538Z,16.70
2018-09-30T15:59:38.006Z,16.65
2018-09-30T16:02:08.580Z,16.63
2018-09-30T16:04:39.596Z,16.62
2018-09-30T16:07:10.657Z,16.57
2018-09-30T16:09:40.796Z,16.53
2018-09-30T16:12:10.982Z,16.50
2018-09-30T16:14:41.919Z,16.49
2018-09-30T16:17:12.052Z,16.45
2018-09-30T16:19:43.360Z,16.39
2018-09-30T16:22:14.581Z,16.35
2018-09-30T16:24:45.859Z,16.23
2018-09-30T16:27:15.747Z,16.22
2018-09-30T16:29:46.564Z,16.18
2018-09-30T16:32:17.907Z,16.13
2018-09-30T16:34:47.680Z,16.08
2018-09-30T16:37:20.605Z,16.00
2018-09-30T16:39:51.768Z,15.95
2018-09-30T16:42:23.704Z,15.86
2018-09-30T16:44:53.845Z,15.69
2018-09-30T16:47:24.010Z,15.59
2018-09-30T16:49:54.654Z,15.41
2018-09-30T16:52:25.384Z,15.49
2018-09-30T16:54:54.203Z,15.48
2018-09-30T17:04:25.356Z,14.97
2018-09-30T17:06:57.288Z,14.93
2018-09-30T17:09:28.782Z,14.73
2018-09-30T17:11:59.008Z,14.85
2018-09-30T17:14:29.210Z,14.75
2018-09-30T17:16:59.493Z,14.67
2018-09-30T17:19:28.987Z,14.64
2018-09-30T17:21:58.986Z,14.59
2018-09-30T17:24:28.853Z,14.49
2018-09-30T17:27:01.402Z,14.40
2018-09-30T17:29:30.366Z,14.33
2018-09-30T17:32:01.718Z,14.28
2018-09-30T17:34:34.516Z,14.14
2018-09-30T17:37:05.341Z,13.99
2018-09-30T17:39:39.669Z,13.93
2018-09-30T17:42:10.990Z,13.97
2018-09-30T17:44:43.218Z,13.86
2018-09-30T17:47:14.306Z,13.84
2018-09-30T17:49:44.735Z,13.71
2018-09-30T17:52:14.387Z,13.46
2018-09-30T17:54:45.541Z,13.46
2018-09-30T17:57:15.795Z,13.49
2018-09-30T17:59:47.000Z,13.47
2018-09-30T18:02:17.003Z,13.38
2018-09-30T18:04:47.464Z,13.31
2018-09-30T18:07:17.700Z,13.30
2018-09-30T18:09:47.704Z,13.21
2018-09-30T18:12:18.202Z,13.13
2018-09-30T18:21:50.776Z,12.90
2018-09-30T18:24:20.421Z,12.85
2018-09-30T18:26:50.510Z,12.82
2018-09-30T18:29:20.583Z,12.76
2018-09-30T18:31:50.821Z,12.72
2018-09-30T18:34:21.047Z,12.68
2018-09-30T18:36:52.078Z,12.59
2018-09-30T18:39:23.907Z,12.53
2018-09-30T18:41:55.088Z,12.47
2018-09-30T18:44:24.798Z,12.39
2018-09-30T18:46:55.509Z,12.27
2018-09-30T18:49:26.657Z,12.23
2018-09-30T18:51:57.403Z,12.29
2018-09-30T18:54:27.678Z,12.25
2018-09-30T18:56:58.652Z,12.21
2018-09-30T18:59:30.399Z,12.14
2018-09-30T19:02:00.931Z,12.08
2018-09-30T19:04:32.060Z,12.07
2018-09-30T19:07:01.442Z,11.98
2018-09-30T19:09:31.100Z,11.99
2018-09-30T19:12:01.027Z,11.95
2018-09-30T19:14:31.039Z,11.91
2018-09-30T19:17:01.027Z,11.72
2018-09-30T19:19:31.114Z,11.78
2018-09-30T19:22:00.332Z,11.75
2018-09-30T19:24:30.234Z,11.73
2018-09-30T19:27:00.350Z,11.68
2018-09-30T19:29:29.705Z,11.65
2018-09-30T19:31:58.745Z,11.56
2018-09-30T19:34:27.972Z,11.44
2018-09-30T19:36:57.720Z,11.38
2018-09-30T19:39:26.956Z,11.42
2018-09-30T19:41:57.225Z,11.41
2018-09-30T19:44:26.606Z,11.41
2018-09-30T19:46:56.386Z,11.35
2018-09-30T19:49:25.745Z,11.36
2018-09-30T19:51:56.021Z,11.34
2018-09-30T19:54:25.609Z,11.30
2018-09-30T19:56:55.046Z,11.10
2018-09-30T19:59:24.016Z,11.18
2018-09-30T20:01:53.520Z,11.09
2018-09-30T20:04:23.392Z,11.15
2018-09-30T20:06:53.415Z,11.13
2018-09-30T20:09:24.186Z,11.10
2018-09-30T20:11:53.919Z,11.08
2018-09-30T20:14:23.594Z,11.05
2018-09-30T20:16:53.234Z,11.01
2018-09-30T20:19:24.157Z,10.96
2018-09-30T20:21:54.049Z,10.85
2018-09-30T20:24:24.865Z,10.74
2018-09-30T20:26:54.822Z,10.81
2018-09-30T20:29:24.633Z,10.71
2018-09-30T20:31:54.248Z,10.75
2018-09-30T20:35:53.278Z,10.74
2018-09-30T20:38:22.616Z,10.68
2018-09-30T20:40:52.183Z,10.66
2018-09-30T20:43:22.928Z,10.59
2018-09-30T20:45:52.220Z,10.54
2018-09-30T20:48:22.240Z,10.48
2018-09-30T20:50:52.403Z,10.46
2018-09-30T20:53:22.398Z,10.44
2018-09-30T20:55:52.184Z,10.39
2018-09-30T20:58:22.012Z,10.38
2018-09-30T21:00:51.982Z,10.36
2018-09-30T21:03:20.999Z,10.34
2018-09-30T21:05:59.500Z,10.32
2018-09-30T21:08:29.653Z,10.25
2018-09-30T21:10:59.527Z,10.23
2018-09-30T21:13:29.271Z,10.21
2018-09-30T21:15:59.496Z,10.17
2018-09-30T21:18:29.622Z,10.12
2018-09-30T21:20:59.901Z,10.09
2018-09-30T21:23:31.340Z,10.04
2018-09-30T21:26:02.901Z,10.02
2018-09-30T21:28:33.952Z,9.97
2018-09-30T21:31:04.070Z,9.93
2018-09-30T21:33:33.905Z,9.92
2018-09-30T21:36:04.220Z,9.81
2018-09-30T21:38:34.954Z,9.85
2018-09-30T21:41:05.077Z,9.85
2018-09-30T21:43:35.150Z,9.78
2018-09-30T21:46:05.078Z,9.76
2018-09-30T21:48:35.075Z,9.72
2018-09-30T21:51:05.277Z,9.58
2018-09-30T21:53:36.063Z,9.53
2018-09-30T21:56:05.848Z,9.60
2018-09-30T21:58:36.915Z,9.58
2018-09-30T22:01:07.915Z,9.58
2018-09-30T22:03:37.911Z,9.59
2018-09-30T22:06:08.018Z,9.55
2018-09-30T22:08:38.127Z,9.54
2018-09-30T22:11:08.092Z,9.44
2018-09-30T22:13:38.026Z,9.41
2018-09-30T22:16:08.395Z,9.46
2018-09-30T22:18:39.414Z,9.45
2018-09-30T22:21:09.455Z,9.43
2018-09-30T22:23:39.493Z,9.40
2018-09-30T22:26:09.559Z,9.37
2018-09-30T22:28:40.646Z,9.34
2018-09-30T22:31:10.562Z,9.30
2018-09-30T22:33:40.251Z,9.22
2018-09-30T22:36:10.106Z,9.25
2018-09-30T22:38:40.112Z,9.12
2018-09-30T22:41:11.071Z,9.11
2018-09-30T22:43:41.138Z,9.12
2018-09-30T22:46:11.127Z,9.10
2018-09-30T22:48:40.944Z,8.99
2018-09-30T22:51:10.646Z,8.98
2018-09-30T22:53:40.960Z,8.94
2018-09-30T22:56:10.543Z,8.90
2018-09-30T22:58:40.795Z,8.91
2018-09-30T23:01:11.002Z,8.84
2018-09-30T23:03:40.615Z,8.85
2018-09-30T23:06:10.458Z,8.87
2018-09-30T23:08:40.527Z,8.86
2018-09-30T23:11:10.328Z,8.86
2018-09-30T23:13:40.563Z,8.87
2018-09-30T23:16:09.712Z,8.87
2018-09-30T23:18:40.288Z,8.88
2018-09-30T23:21:10.032Z,8.90
2018-09-30T23:23:40.574Z,8.90
2018-09-30T23:26:10.512Z,8.94
2018-09-30T23:28:40.597Z,8.96
2018-09-30T23:31:10.447Z,8.98
2018-09-30T23:33:40.421Z,9.00
2018-09-30T23:36:10.652Z,9.03
2018-09-30T23:38:40.985Z,9.04
2018-09-30T23:41:10.982Z,9.06
2018-09-30T23:43:41.246Z,9.09
2018-09-30T23:46:11.111Z,9.12
2018-09-30T23:48:41.070Z,9.14
2018-09-30T23:51:11.688Z,9.18
2018-09-30T23:53:41.577Z,9.20
2018-09-30T23:56:11.505Z,9.22
2018-09-30T23:58:41.658Z,9.15
